Time;durP1;ratioP1;P1;durP2;ratioP2;P2;SDS_P1;SDS_P2;PMS_P1;PMS_P2;Temp;Humidity;BMP_temperature;BMP_pressure;BME280_temperature;BME280_humidity;BME280_pressure;Samples;Min_cycle;Max_cycle;Signal;HPM_P1;HPM_P2
2022/06/18 00:00:44;;;;;;;4.32;2.92;;;;;;;18.62;83.28;101580.53;5070200;28;20060;-73
2022/06/18 00:03:11;;;;;;;4.47;2.67;;;;;;;18.56;83.11;101572.44;5060492;28;20129;-73
2022/06/18 00:05:37;;;;;;;5.13;3.25;;;;;;;18.57;84.02;101579.41;5052072;28;20025;-73
2022/06/18 00:08:06;;;;;;;4.57;2.80;;;;;;;18.56;83.84;101569.75;5051432;28;20129;-73
2022/06/18 00:10:31;;;;;;;4.53;2.83;;;;;;;18.45;83.48;101565.69;5053424;28;20040;-74
2022/06/18 00:16:02;;;;;;;2.90;2.50;;;;;;;18.47;84.29;101563.69;5051500;28;20524;-73
2022/06/18 00:18:28;;;;;;;3.70;2.38;;;;;;;18.46;84.35;101562.81;5051212;28;20024;-73
2022/06/18 00:20:53;;;;;;;7.57;3.03;;;;;;;18.39;83.66;101539.72;5051349;28;20443;-73
2022/06/18 00:23:20;;;;;;;3.25;2.15;;;;;;;18.46;83.64;101554.81;5051671;28;20039;-73
2022/06/18 00:25:51;;;;;;;3.28;2.53;;;;;;;18.42;84.22;101540.19;5033690;28;20029;-73
2022/06/18 00:28:23;;;;;;;3.13;2.45;;;;;;;18.53;84.28;101549.56;5050944;28;20086;-73
2022/06/18 00:30:49;;;;;;;4.90;2.53;;;;;;;18.50;83.74;101548.06;5051267;28;20017;-73
2022/06/18 00:33:15;;;;;;;7.88;3.65;;;;;;;18.50;83.81;101542.72;5033646;28;20044;-73
2022/06/18 00:35:41;;;;;;;7.88;2.60;;;;;;;18.49;84.46;101541.09;5033133;28;20033;-73
2022/06/18 00:38:13;;;;;;;3.63;3.03;;;;;;;18.32;84.07;101512.91;5051341;28;20037;-73
2022/06/18 00:40:42;;;;;;;6.70;2.67;;;;;;;18.47;84.69;101532.41;5051560;28;20024;-73
2022/06/18 00:43:16;;;;;;;4.38;2.60;;;;;;;18.45;83.87;101539.78;5033050;28;20029;-73
2022/06/18 00:45:42;;;;;;;3.90;2.92;;;;;;;18.40;84.33;101536.84;5030601;28;20112;-73
2022/06/18 00:48:23;;;;;;;3.60;2.60;;;;;;;18.37;85.36;101560.44;5031717;28;20123;-73
2022/06/18 00:50:54;;;;;;;;;;;;;;;18.42;83.76;101563.38;5048222;28;20029;-73
2022/06/18 00:53:44;;;;;;;2.60;2.28;;;;;;;18.42;84.44;101552.69;5051233;28;19923;-73
2022/06/18 00:56:23;;;;;;;2.97;2.42;;;;;;;18.42;83.22;101560.69;5032698;28;20099;-73
2022/06/18 00:58:56;;;;;;;3.20;2.40;;;;;;;18.33;84.41;101535.91;5029616;28;20121;-73
2022/06/18 01:01:29;;;;;;;2.85;1.98;;;;;;;18.37;83.85;101552.44;5049808;28;20112;-73
2022/06/18 01:03:55;;;;;;;17.55;3.50;;;;;;;18.40;84.52;101552.91;5050814;28;20307;-73
2022/06/18 01:06:38;;;;;;;9.32;2.47;;;;;;;18.36;83.80;101559.63;5049853;28;20021;-73
2022/06/18 01:09:07;;;;;;;3.33;2.38;;;;;;;18.40;82.92;101558.25;5032589;28;20078;-73
2022/06/18 01:11:38;;;;;;;3.85;2.63;;;;;;;18.34;83.83;101540.25;5026951;28;20120;-73
2022/06/18 01:14:05;;;;;;;2.58;2.10;;;;;;;18.43;82.65;101559.72;5047379;28;20021;-73
2022/06/18 01:16:31;;;;;;;2.55;2.35;;;;;;;18.45;83.99;101557.69;5032693;28;20048;-73
2022/06/18 01:18:57;;;;;;;3.17;2.60;;;;;;;18.33;84.15;101535.91;5050515;28;20035;-73
2022/06/18 01:21:40;;;;;;;3.70;2.30;;;;;;;18.42;82.30;101556.22;5033511;28;20388;-73
2022/06/18 01:24:14;;;;;;;3.40;2.92;;;;;;;18.42;84.05;101550.00;5049272;28;20063;-73
2022/06/18 01:26:41;;;;;;;2.85;2.47;;;;;;;18.34;83.57;101537.59;5032993;28;20029;-74
2022/06/18 01:29:06;;;;;;;3.67;2.38;;;;;;;18.32;82.39;101522.75;5032411;28;20025;-74
2022/06/18 01:31:32;;;;;;;4.72;2.40;;;;;;;18.32;82.11;101518.25;5015607;28;20037;-74
2022/06/18 01:33:59;;;;;;;4.07;2.50;;;;;;;18.42;83.00;101532.16;5015768;28;20378;-74
2022/06/18 01:36:31;;;;;;;3.55;2.30;;;;;;;18.45;82.88;101534.44;5032462;28;20060;-73
2022/06/18 01:38:56;;;;;;;3.45;2.50;;;;;;;18.45;82.69;101521.09;5049136;28;20477;-73
2022/06/18 01:44:17;;;;;;;2.20;1.88;;;;;;;18.48;81.45;101539.41;5047561;28;20040;-74
2022/06/18 01:46:46;;;;;;;3.22;2.10;;;;;;;18.36;80.71;101530.22;5048985;28;20041;-74
2022/06/18 01:49:16;;;;;;;5.82;2.50;;;;;;;18.36;82.11;101519.53;5049020;28;20027;-74
2022/06/18 01:51:47;;;;;;;6.43;2.95;;;;;;;18.45;82.82;101542.47;5049991;28;20104;-74
2022/06/18 01:54:20;;;;;;;4.53;2.65;;;;;;;18.42;81.98;101545.53;5030790;28;20078;-74
2022/06/18 01:56:53;;;;;;;3.13;2.65;;;;;;;18.40;82.78;101550.22;5049633;28;20032;-74
2022/06/18 01:59:32;;;;;;;6.10;3.25;;;;;;;18.39;82.34;101545.88;5048895;28;20054;-74
2022/06/18 02:01:58;;;;;;;4.32;2.70;;;;;;;18.42;82.83;101545.53;5050070;28;20031;-73
2022/06/18 02:04:26;;;;;;;4.10;3.00;;;;;;;18.40;82.48;101536.84;5050691;28;20029;-74
2022/06/18 02:06:52;;;;;;;4.25;3.28;;;;;;;18.37;82.98;101537.22;5032653;28;20446;-74
2022/06/18 02:09:26;;;;;;;4.82;3.40;;;;;;;18.35;82.63;101533.06;5047518;28;20420;-74
2022/06/18 02:11:55;;;;;;;3.38;2.40;;;;;;;18.28;81.67;101527.63;5049351;28;20110;-74
2022/06/18 02:14:22;;;;;;;5.40;3.08;;;;;;;18.19;83.13;101516.22;5050185;28;20028;-74
2022/06/18 02:16:50;;;;;;;3.08;2.33;;;;;;;18.31;84.03;101543.28;5015683;28;20024;-74
2022/06/18 02:19:18;;;;;;;4.65;3.33;;;;;;;18.26;84.08;101541.16;5050299;28;20365;-74
2022/06/18 02:21:47;;;;;;;8.20;3.45;;;;;;;18.21;83.61;101546.25;5031651;28;20039;-74
2022/06/18 02:24:12;;;;;;;4.05;2.72;;;;;;;18.17;83.63;101536.13;5050050;28;20063;-74
2022/06/18 02:26:40;;;;;;;4.07;2.75;;;;;;;18.05;82.91;101522.34;5049297;28;20060;-73
2022/06/18 02:29:16;;;;;;;3.42;2.28;;;;;;;18.05;80.86;101536.56;5049069;28;20087;-73
2022/06/18 02:31:45;;;;;;;5.68;3.30;;;;;;;18.12;82.48;101536.66;5048631;28;20029;-74
2022/06/18 02:34:15;;;;;;;3.90;2.97;;;;;;;18.08;82.01;101532.69;5032161;28;20033;-74
2022/06/18 02:36:43;;;;;;;3.63;3.20;;;;;;;18.03;81.78;101525.22;5046262;28;20047;-74
2022/06/18 02:39:14;;;;;;;3.88;3.05;;;;;;;18.03;81.74;101516.38;5049157;28;20488;-74
2022/06/18 02:41:42;;;;;;;5.32;3.38;;;;;;;18.00;83.09;101528.25;5031120;28;20032;-74
2022/06/18 02:44:10;;;;;;;6.57;3.20;;;;;;;17.94;83.92;101534.31;5050432;28;20037;-74
2022/06/18 02:46:35;;;;;;;4.45;3.15;;;;;;;17.93;84.09;101530.00;5049727;28;20033;-74
2022/06/18 02:49:05;;;;;;;4.40;3.15;;;;;;;17.84;83.31;101536.44;5031692;28;20500;-74
2022/06/18 02:51:31;;;;;;;4.70;3.38;;;;;;;17.86;83.91;101545.91;5031438;28;20036;-74
2022/06/18 02:53:57;;;;;;;4.07;3.58;;;;;;;17.80;84.79;101537.78;5049754;28;20025;-74
2022/06/18 02:56:23;;;;;;;5.85;4.13;;;;;;;17.79;86.53;101544.09;5050588;28;20029;-74
2022/06/18 02:58:49;;;;;;;8.27;3.65;;;;;;;17.74;85.84;101549.16;5049763;28;20412;-74
2022/06/18 03:01:17;;;;;;;5.20;3.75;;;;;;;17.72;86.04;101543.19;5031093;28;20052;-74
2022/06/18 03:03:47;;;;;;;4.80;2.78;;;;;;;17.69;85.27;101545.19;5061193;28;20185;-74
2022/06/18 03:06:14;;;;;;;5.05;3.67;;;;;;;17.68;84.53;101545.38;5065757;28;20021;-74
2022/06/18 03:08:40;;;;;;;8.73;4.07;;;;;;;17.69;84.71;101547.88;5069460;28;20025;-74
2022/06/18 03:13:54;;;;;;;3.65;2.95;;;;;;;17.61;83.84;101545.25;5069038;28;20463;-74
2022/06/18 03:16:22;;;;;;;4.25;3.80;;;;;;;17.66;84.25;101566.09;5068321;28;20024;-74
2022/06/18 03:18:50;;;;;;;4.40;3.17;;;;;;;17.62;85.15;101573.63;5069015;28;20039;-74
2022/06/18 03:21:31;;;;;;;5.88;4.13;;;;;;;17.59;87.39;101568.63;5067626;28;20085;-74
2022/06/18 03:23:56;;;;;;;5.70;4.40;;;;;;;17.52;88.17;101570.34;5066878;28;20028;-74
2022/06/18 03:26:22;;;;;;;5.80;4.20;;;;;;;17.46;88.13;101576.41;5068215;28;20409;-73
2022/06/18 03:28:48;;;;;;;5.45;4.00;;;;;;;17.44;87.82;101575.75;5068118;28;20055;-73
2022/06/18 03:31:14;;;;;;;7.53;4.07;;;;;;;17.36;88.88;101571.31;5067568;28;20032;-73
2022/06/18 03:33:41;;;;;;;6.30;3.75;;;;;;;17.32;88.56;101572.66;5028163;28;20052;-73
2022/06/18 03:36:08;;;;;;;5.28;3.90;;;;;;;17.32;88.58;101583.34;5068893;28;20530;-74
2022/06/18 03:38:33;;;;;;;9.23;4.95;;;;;;;17.39;88.12;101597.63;5055513;28;20098;-74
2022/06/18 03:40:59;;;;;;;7.78;4.38;;;;;;;17.38;89.56;101598.66;5069683;28;20436;-74
2022/06/18 03:43:26;;;;;;;6.75;4.70;;;;;;;17.37;90.84;101598.81;5072783;28;20075;-74
2022/06/18 03:45:56;;;;;;;7.85;4.38;;;;;;;17.28;91.23;101590.84;5072371;28;20124;-73
2022/06/18 03:49:01;;;;;;;5.65;3.90;;;;;;;17.36;91.17;101602.50;5073357;28;20055;-73
2022/06/18 03:51:27;;;;;;;8.45;4.40;;;;;;;17.38;91.49;101589.81;5010232;28;20112;-73
2022/06/18 03:53:54;;;;;;;6.38;3.85;;;;;;;17.39;90.49;101591.47;5010505;28;20096;-73
2022/06/18 03:56:22;;;;;;;8.55;5.00;;;;;;;17.37;91.65;101590.81;5011439;28;20076;-73
2022/06/18 03:58:48;;;;;;;7.85;4.20;;;;;;;17.37;91.10;101583.63;5010323;28;20112;-74
2022/06/18 04:01:18;;;;;;;6.22;4.20;;;;;;;17.49;90.61;101597.41;5009562;28;20034;-74
2022/06/18 04:03:44;;;;;;;7.10;4.23;;;;;;;17.52;90.47;101602.38;4993965;28;20064;-74
2022/06/18 04:06:10;;;;;;;10.20;4.80;;;;;;;17.55;90.46;101596.72;5009275;28;20037;-74
2022/06/18 04:08:36;;;;;;;5.35;4.18;;;;;;;17.58;90.01;101601.69;5009866;28;20077;-74
2022/06/18 04:11:01;;;;;;;8.38;4.70;;;;;;;17.62;89.73;101603.00;5009196;28;20453;-74
2022/06/18 04:13:28;;;;;;;6.63;5.05;;;;;;;17.66;88.72;101611.47;5009666;28;20038;-74
2022/06/18 04:15:54;;;;;;;5.13;4.07;;;;;;;17.72;90.58;101612.59;5010185;28;20033;-75
2022/06/18 04:18:20;;;;;;;8.23;4.88;;;;;;;17.74;90.29;101607.91;5009738;28;20473;-74
2022/06/18 04:20:45;;;;;;;8.70;5.65;;;;;;;17.82;91.04;101607.88;4975803;28;20077;-73
2022/06/18 04:23:11;;;;;;;5.88;4.30;;;;;;;17.81;90.71;101598.16;5009524;28;20129;-74
2022/06/18 04:25:38;;;;;;;8.27;4.53;;;;;;;17.81;90.09;101595.50;4977066;28;20068;-73
2022/06/18 04:28:03;;;;;;;5.15;4.20;;;;;;;17.89;89.82;101606.13;5067391;28;20052;-73
2022/06/18 04:30:32;;;;;;;6.90;5.13;;;;;;;17.91;91.14;101608.66;5070226;28;20102;-73
2022/06/18 04:32:57;;;;;;;7.40;5.13;;;;;;;17.86;90.12;101595.84;5070979;28;20025;-73
2022/06/18 04:35:23;;;;;;;7.80;4.90;;;;;;;17.96;89.90;101609.75;5067699;28;20086;-74
2022/06/18 04:37:49;;;;;;;10.05;5.50;;;;;;;17.96;91.33;101608.91;5071759;28;20063;-74
2022/06/18 04:40:18;;;;;;;5.85;4.88;;;;;;;18.03;91.02;101610.72;5071259;28;20028;-74
2022/06/18 04:42:43;;;;;;;8.93;4.53;;;;;;;18.11;89.93;101612.47;5070613;28;20028;-73
2022/06/18 04:45:10;;;;;;;9.23;5.63;;;;;;;18.17;90.04;101610.91;5069568;28;20017;-73
2022/06/18 04:47:36;;;;;;;8.68;4.75;;;;;;;18.22;90.83;101616.53;5070054;28;20488;-74
2022/06/18 04:50:03;;;;;;;7.82;4.68;;;;;;;18.23;91.53;101607.53;5071977;28;20032;-74
2022/06/18 04:52:28;;;;;;;6.03;4.70;;;;;;;18.27;89.43;101592.78;5070333;28;20020;-74
2022/06/18 04:54:54;;;;;;;6.45;4.85;;;;;;;18.42;90.13;101612.34;5054046;28;20027;-74
2022/06/18 04:57:20;;;;;;;7.85;5.97;;;;;;;18.53;89.82;101608.38;5071491;28;20024;-74
2022/06/18 04:59:46;;;;;;;7.53;4.50;;;;;;;18.66;89.12;101611.25;5068261;28;20060;-74
2022/06/18 05:02:24;;;;;;;8.20;4.38;;;;;;;18.69;87.15;101585.97;5065460;28;20036;-74
2022/06/18 05:04:49;;;;;;;6.00;4.43;;;;;;;18.96;85.76;101603.19;5032354;28;20055;-74
2022/06/18 05:07:15;;;;;;;6.57;4.80;;;;;;;19.02;87.15;101601.63;5050151;28;20029;-74
2022/06/18 05:09:40;;;;;;;6.97;4.40;;;;;;;19.15;87.12;101612.50;5032798;28;20049;-74
2022/06/18 05:12:06;;;;;;;8.23;4.38;;;;;;;19.27;87.43;101627.06;5049806;28;20040;-74
2022/06/18 05:14:32;;;;;;;7.45;3.88;;;;;;;19.35;85.32;101630.63;5051052;28;20345;-74
2022/06/18 05:16:59;;;;;;;7.45;4.22;;;;;;;19.33;84.68;101607.53;5050423;28;20056;-74
2022/06/18 05:19:27;;;;;;;8.52;3.50;;;;;;;19.47;85.10;101623.75;5020706;28;20067;-74
2022/06/18 05:21:54;;;;;;;9.30;4.78;;;;;;;19.43;84.54;101623.31;5049218;28;20389;-74
2022/06/18 05:24:19;;;;;;;7.28;4.55;;;;;;;19.55;84.63;101636.19;5021719;28;20052;-74
2022/06/18 05:26:51;;;;;;;5.50;3.78;;;;;;;19.73;86.02;101644.66;5031601;28;20118;-75
2022/06/18 05:29:17;;;;;;;8.52;3.85;;;;;;;19.73;84.39;101629.41;5048373;28;20531;-74
2022/06/18 05:31:43;;;;;;;7.35;4.65;;;;;;;19.93;84.92;101650.19;5042939;28;20693;-74
2022/06/18 05:34:08;;;;;;;6.00;4.50;;;;;;;19.99;84.39;101648.59;5031900;28;20025;-74
2022/06/18 05:36:34;;;;;;;7.28;4.90;;;;;;;20.02;84.40;101646.34;5031320;28;20033;-74
2022/06/18 05:39:00;;;;;;;6.15;4.07;;;;;;;20.04;83.79;101635.44;5030940;28;20029;-75
2022/06/18 05:41:26;;;;;;;7.03;3.83;;;;;;;20.28;82.83;101658.31;5031459;28;20045;-73
2022/06/18 05:43:52;;;;;;;6.43;4.18;;;;;;;20.39;83.51;101665.81;5050211;28;20059;-75
2022/06/18 05:46:17;;;;;;;11.38;3.70;;;;;;;20.60;82.63;101670.34;5029585;28;20445;-74
2022/06/18 05:48:43;;;;;;;6.65;3.47;;;;;;;20.73;82.29;101645.44;5030988;28;20040;-74
2022/06/18 05:51:09;;;;;;;6.75;3.47;;;;;;;20.98;80.77;101663.75;5049334;28;20063;-74
2022/06/18 05:53:34;;;;;;;5.47;3.33;;;;;;;21.22;79.90;101665.91;5048782;28;20036;-75
2022/06/18 05:56:00;;;;;;;5.45;3.22;;;;;;;21.36;78.13;101672.13;5044998;28;20025;-75
2022/06/18 05:58:25;;;;;;;3.30;2.67;;;;;;;21.59;77.24;101668.31;5048693;28;20042;-75
2022/06/18 06:00:51;;;;;;;10.13;3.20;;;;;;;21.71;77.03;101664.84;5049395;28;20025;-75
2022/06/18 06:03:16;;;;;;;6.70;3.30;;;;;;;21.66;75.51;101635.06;5049336;28;20055;-75
2022/06/18 06:05:41;;;;;;;6.72;2.90;;;;;;;21.90;75.67;101667.75;5068593;28;20024;-75
2022/06/18 06:08:09;;;;;;;6.28;2.70;;;;;;;21.94;75.34;101669.81;5070452;28;20400;-75
2022/06/18 06:13:19;;;;;;;8.13;3.22;;;;;;;22.12;74.58;101671.06;5067769;28;20424;-75
2022/06/18 06:15:45;;;;;;;4.20;2.30;;;;;;;22.25;74.45;101676.47;5070060;28;20025;-75
2022/06/18 06:18:12;;;;;;;8.18;2.72;;;;;;;22.32;74.58;101673.78;5085844;28;20039;-75
2022/06/18 06:20:40;;;;;;;7.40;2.90;;;;;;;22.44;74.90;101661.38;5068930;28;20063;-75
2022/06/18 06:23:06;;;;;;;6.07;3.83;;;;;;;22.63;73.64;101669.63;5066255;28;20115;-75
2022/06/18 06:25:32;;;;;;;5.72;3.33;;;;;;;22.76;72.88;101673.09;5067314;28;20037;-75
2022/06/18 06:27:58;;;;;;;7.10;3.00;;;;;;;22.56;72.14;101656.19;5068109;28;20103;-75
2022/06/18 06:30:23;;;;;;;5.13;3.13;;;;;;;22.74;72.74;101685.13;5071689;28;20063;-75
2022/06/18 06:32:48;;;;;;;3.90;2.03;;;;;;;23.05;72.38;101689.00;5068753;28;20033;-75
2022/06/18 06:35:14;;;;;;;6.13;2.53;;;;;;;23.26;71.67;101688.72;5076562;28;20473;-75
2022/06/18 06:37:40;;;;;;;6.55;2.72;;;;;;;23.58;70.80;101676.13;5065898;28;20036;-75
2022/06/18 06:40:06;;;;;;;5.80;2.50;;;;;;;23.89;70.32;101690.66;5065239;28;20368;-75
2022/06/18 06:42:41;;;;;;;7.28;2.33;;;;;;;23.93;68.84;101704.50;5063641;28;20113;-75
2022/06/18 06:45:11;;;;;;;6.82;2.47;;;;;;;24.29;68.86;101713.81;5065796;28;20487;-75
2022/06/18 06:47:36;;;;;;;7.38;3.15;;;;;;;24.28;68.10;101717.53;5066441;28;20148;-74
2022/06/18 06:50:01;;;;;;;3.55;2.10;;;;;;;24.51;68.38;101720.47;5064130;28;20127;-75
2022/06/18 06:52:27;;;;;;;6.72;2.00;;;;;;;24.72;67.12;101718.44;5065225;28;20366;-74
2022/06/18 06:57:21;;;;;;;5.75;2.65;;;;;;;25.12;66.77;101729.59;5064683;28;20171;-76
2022/06/18 06:57:41;;;;;;;5.13;2.60;;;;;;;25.31;66.51;101721.53;5064355;28;20044;-75
2022/06/18 07:00:07;;;;;;;4.20;1.58;;;;;;;25.60;66.60;101722.59;5064946;28;20024;-76
2022/06/18 07:02:33;;;;;;;8.48;2.53;;;;;;;25.66;65.41;101697.34;5059463;28;20099;-75
2022/06/18 07:04:58;;;;;;;4.97;2.10;;;;;;;25.73;64.91;101697.25;5012080;28;20040;-75
2022/06/18 07:07:25;;;;;;;4.15;1.90;;;;;;;26.05;64.17;101711.34;5011788;28;20142;-74
2022/06/18 07:09:51;;;;;;;4.75;1.75;;;;;;;26.40;63.82;101707.88;5029096;28;20400;-75
2022/06/18 07:12:16;;;;;;;2.53;1.52;;;;;;;26.92;62.28;101716.09;5050102;28;20037;-75
2022/06/18 07:14:42;;;;;;;5.05;1.83;;;;;;;26.94;61.24;101718.59;5050733;28;20195;-74
2022/06/18 07:17:17;;;;;;;3.10;1.52;;;;;;;27.27;60.37;101701.66;5051374;28;20020;-73
2022/06/18 07:19:43;;;;;;;4.38;1.77;;;;;;;27.23;59.81;101725.72;5048292;28;20062;-73
2022/06/18 07:22:10;;;;;;;2.33;1.23;;;;;;;27.25;60.24;101720.06;5049643;28;20581;-73
2022/06/18 07:24:36;;;;;;;4.32;1.73;;;;;;;27.37;59.55;101704.59;5047099;28;20040;-74
2022/06/18 07:27:03;;;;;;;5.97;1.63;;;;;;;27.72;58.43;101725.31;5032330;28;20029;-73
2022/06/18 07:29:28;;;;;;;3.72;1.38;;;;;;;27.90;58.92;101716.97;5049311;28;20060;-73
2022/06/18 07:31:53;;;;;;;2.28;1.20;;;;;;;28.40;57.33;101725.38;5015121;28;20130;-75
2022/06/18 07:34:19;;;;;;;4.68;1.38;;;;;;;28.76;57.15;101734.03;5028125;28;20086;-72
2022/06/18 07:36:44;;;;;;;2.75;1.25;;;;;;;28.86;55.84;101742.34;5049601;28;20043;-72
2022/06/18 07:39:10;;;;;;;2.25;1.20;;;;;;;28.99;55.69;101727.56;5050382;28;20028;-74
2022/06/18 07:41:48;;;;;;;1.55;1.00;;;;;;;29.44;55.21;101742.81;5048099;28;20025;-72
2022/06/18 07:44:13;;;;;;;3.47;1.52;;;;;;;29.60;54.82;101754.69;5047099;28;20539;-72
2022/06/18 07:46:39;;;;;;;5.15;1.50;;;;;;;29.86;54.25;101753.88;5047456;28;20120;-73
2022/06/18 07:49:05;;;;;;;2.22;1.23;;;;;;;29.89;54.02;101760.72;5047346;28;20053;-72
2022/06/18 07:51:31;;;;;;;5.25;2.00;;;;;;;29.90;53.98;101743.31;5033243;28;20483;-74
2022/06/18 07:53:56;;;;;;;4.30;1.50;;;;;;;30.02;54.21;101738.50;5029605;28;20041;-72
2022/06/18 07:56:22;;;;;;;1.52;1.13;;;;;;;30.18;53.89;101734.00;5048472;28;20733;-72
2022/06/18 07:58:48;;;;;;;2.05;1.20;;;;;;;30.26;53.91;101736.25;5047570;28;20028;-72
2022/06/18 08:01:13;;;;;;;4.50;1.13;;;;;;;30.43;53.31;101740.78;5047502;28;20067;-71
2022/06/18 08:03:39;;;;;;;1.73;0.85;;;;;;;29.79;54.49;101731.53;5045355;28;20057;-71
2022/06/18 08:06:07;;;;;;;1.42;1.05;;;;;;;30.14;53.83;101741.06;5029847;28;20120;-69
2022/06/18 08:08:32;;;;;;;1.98;0.85;;;;;;;30.59;53.42;101750.66;5048957;28;20051;-69
2022/06/18 08:10:57;;;;;;;1.15;0.80;;;;;;;30.53;53.45;101752.56;5030887;28;20021;-70
2022/06/18 08:13:23;;;;;;;1.40;1.00;;;;;;;30.84;52.68;101760.09;5047605;28;20047;-70
2022/06/18 08:15:48;;;;;;;2.20;0.88;;;;;;;30.81;52.42;101760.59;5048305;28;20029;-69
2022/06/18 08:18:14;;;;;;;2.63;1.20;;;;;;;30.36;53.77;101741.00;5050842;28;20020;-70
2022/06/18 08:20:41;;;;;;;2.65;0.70;;;;;;;30.83;53.21;101739.34;5014521;28;20029;-70
2022/06/18 08:23:08;;;;;;;2.50;1.00;;;;;;;30.91;52.80;101752.53;5029636;28;20025;-70
2022/06/18 08:25:37;;;;;;;1.02;0.50;;;;;;;30.72;53.55;101758.38;5049950;28;20025;-70
2022/06/18 08:28:05;;;;;;;2.22;0.90;;;;;;;30.17;54.42;101743.25;5049062;28;20029;-70
2022/06/18 08:30:31;;;;;;;3.40;0.90;;;;;;;29.98;54.93;101747.47;5031111;28;20075;-69
2022/06/18 08:32:56;;;;;;;1.90;1.02;;;;;;;30.26;54.31;101758.03;5029246;28;20475;-70
2022/06/18 08:35:22;;;;;;;1.27;0.50;;;;;;;29.85;55.44;101773.19;5048291;28;20056;-70
2022/06/18 08:37:47;;;;;;;2.80;0.93;;;;;;;29.60;55.12;101771.00;5030802;28;20037;-70
2022/06/18 08:40:36;;;;;;;0.75;0.45;;;;;;;30.03;54.38;101750.22;5029581;28;20032;-70
2022/06/18 08:43:12;;;;;;;1.52;0.60;;;;;;;30.64;52.74;101753.44;5023719;28;20398;-72
2022/06/18 08:45:56;;;;;;;1.98;0.60;;;;;;;30.89;53.31;101755.50;5026158;28;20035;-71
2022/06/18 08:48:45;;;;;;;1.88;0.75;;;;;;;31.72;51.71;101756.63;5046136;28;20075;-71
2022/06/18 08:51:31;;;;;;;0.50;0.25;;;;;;;31.95;49.99;101752.56;5048731;28;20033;-71
2022/06/18 08:54:11;;;;;;;2.83;0.52;;;;;;;32.42;49.97;101775.25;5029454;28;20059;-71
2022/06/18 08:57:32;;;;;;;0.93;0.40;;;;;;;33.02;48.62;101767.22;5029284;28;20075;-71
2022/06/18 09:00:26;;;;;;;0.25;0.20;;;;;;;32.89;48.02;101776.81;4974655;28;20046;-71
2022/06/18 09:03:10;;;;;;;0.85;0.40;;;;;;;33.42;48.88;101788.09;4970427;28;20149;-71
2022/06/18 09:05:51;;;;;;;0.80;0.40;;;;;;;33.42;47.33;101782.63;5006980;28;20033;-73
2022/06/18 09:08:32;;;;;;;1.25;0.50;;;;;;;33.01;47.79;101777.31;5007227;28;20052;-72
2022/06/18 09:11:26;;;;;;;0.90;0.40;;;;;;;33.37;46.95;101760.78;5006849;28;20345;-72
2022/06/18 09:14:30;;;;;;;1.05;0.45;;;;;;;34.00;46.88;101774.63;5007312;28;20042;-71
2022/06/18 09:17:24;;;;;;;1.08;0.38;;;;;;;34.38;46.70;101794.03;4991661;28;20040;-71
2022/06/18 09:20:09;;;;;;;1.98;0.50;;;;;;;34.75;45.74;101781.63;5002057;28;20531;-71
2022/06/18 09:22:41;;;;;;;1.17;0.57;;;;;;;34.27;45.78;101781.53;5006232;28;20075;-71
2022/06/18 09:25:13;;;;;;;1.73;0.40;;;;;;;34.26;45.90;101763.47;5007178;28;20399;-71
2022/06/18 09:27:45;;;;;;;0.40;0.28;;;;;;;34.60;44.98;101774.38;4991067;28;20046;-71
2022/06/18 09:30:18;;;;;;;0.80;0.30;;;;;;;34.72;44.77;101759.50;5006418;28;20442;-71
2022/06/18 09:32:57;;;;;;;0.82;0.50;;;;;;;34.35;44.99;101778.19;5004358;28;20405;-70
2022/06/18 09:35:35;;;;;;;1.42;0.65;;;;;;;34.15;45.14;101778.38;5064744;28;20028;-70
2022/06/18 09:38:05;;;;;;;2.08;0.60;;;;;;;34.57;45.69;101785.91;5066901;28;20036;-70
2022/06/18 09:40:39;;;;;;;0.52;0.35;;;;;;;34.97;44.89;101789.38;5067721;28;20597;-70
2022/06/18 09:43:17;;;;;;;1.27;0.35;;;;;;;34.74;45.17;101793.72;5066900;28;20024;-70
2022/06/18 09:45:53;;;;;;;1.33;0.50;;;;;;;34.84;44.43;101795.53;5065099;28;20029;-70
2022/06/18 09:48:18;;;;;;;1.77;0.30;;;;;;;34.86;44.62;101787.00;5065440;28;20016;-70
2022/06/18 09:50:49;;;;;;;0.95;0.30;;;;;;;35.44;44.29;101771.22;5066422;28;20059;-71
2022/06/18 09:53:34;;;;;;;1.00;0.47;;;;;;;35.43;43.43;101779.72;5067184;28;20423;-71
2022/06/18 09:56:23;;;;;;;2.30;0.47;;;;;;;35.58;44.14;101786.94;5065556;28;20025;-71
2022/06/18 09:58:55;;;;;;;0.27;0.20;;;;;;;35.88;43.39;101779.38;5066709;28;20025;-71
2022/06/18 10:01:27;;;;;;;1.88;0.93;;;;;;;36.09;42.79;101774.38;5065321;28;20801;-71
2022/06/18 10:06:57;;;;;;;1.33;0.30;;;;;;;36.00;42.83;101766.81;5046235;28;20561;-71
2022/06/18 10:10:09;;;;;;;1.40;0.50;;;;;;;36.02;42.69;101770.09;5047501;28;20029;-71
2022/06/18 10:12:42;;;;;;;0.80;0.40;;;;;;;36.00;42.41;101761.31;5042773;28;20049;-71
2022/06/18 10:15:10;;;;;;;3.47;0.40;;;;;;;36.32;42.41;101770.69;5046189;28;20464;-71
2022/06/18 10:18:01;;;;;;;1.00;0.50;;;;;;;36.30;41.63;101777.59;5047006;28;20035;-71
2022/06/18 10:20:46;;;;;;;0.55;0.40;;;;;;;36.45;41.34;101772.66;5045719;28;20393;-71
2022/06/18 10:23:16;;;;;;;1.10;0.40;;;;;;;36.38;41.63;101766.72;5047359;28;20082;-71
2022/06/18 10:25:45;;;;;;;;;;;;;;;36.08;42.40;101768.03;5046883;28;20382;-71
2022/06/18 10:28:19;;;;;;;1.40;0.60;;;;;;;36.44;42.16;101768.25;5047319;28;19928;-71
2022/06/18 10:31:00;;;;;;;1.35;0.40;;;;;;;36.43;41.96;101763.91;5046176;28;20037;-71
2022/06/18 10:33:51;;;;;;;1.00;0.47;;;;;;;36.16;42.32;101763.84;5046374;28;20136;-71
2022/06/18 10:36:33;;;;;;;0.43;0.30;;;;;;;36.53;42.18;101757.38;5013863;28;20033;-71
2022/06/18 10:39:16;;;;;;;0.13;0.10;;;;;;;36.86;40.79;101749.88;5045540;28;20052;-71
2022/06/18 10:42:10;;;;;;;0.98;0.45;;;;;;;37.19;40.03;101743.44;5047361;28;20028;-71
2022/06/18 10:44:56;;;;;;;0.93;0.38;;;;;;;36.99;40.63;101761.16;5045325;28;20064;-71
2022/06/18 10:47:31;;;;;;;0.47;0.22;;;;;;;37.31;39.58;101737.41;5046147;28;20029;-70
2022/06/18 10:50:02;;;;;;;0.82;0.30;;;;;;;37.49;39.42;101758.44;5027732;28;20025;-70
2022/06/18 10:52:28;;;;;;;2.25;0.32;;;;;;;37.39;39.90;101750.41;5046243;28;20499;-70
2022/06/18 10:55:16;;;;;;;1.45;0.30;;;;;;;37.71;39.38;101756.88;5047496;28;20033;-70
2022/06/18 10:57:42;;;;;;;1.73;0.65;;;;;;;37.70;40.18;101749.75;5045486;28;20488;-71
2022/06/18 11:00:12;;;;;;;0.98;0.40;;;;;;;37.60;38.40;101750.78;5046678;28;20028;-71
2022/06/18 11:02:39;;;;;;;0.80;0.35;;;;;;;37.44;39.54;101742.84;5027667;28;20130;-71
2022/06/18 11:05:27;;;;;;;1.63;0.45;;;;;;;37.13;39.52;101752.91;5065100;28;20031;-71
2022/06/18 11:07:53;;;;;;;1.02;0.73;;;;;;;37.39;39.30;101751.25;5065782;28;20655;-71
2022/06/18 11:10:53;;;;;;;1.30;0.47;;;;;;;37.15;38.91;101757.00;5066876;28;20040;-71
2022/06/18 11:13:28;;;;;;;0.85;0.40;;;;;;;37.01;40.63;101743.22;5066634;28;20388;-71
2022/06/18 11:16:35;;;;;;;2.13;0.45;;;;;;;36.93;40.91;101748.63;5079404;28;20024;-71
2022/06/18 11:19:03;;;;;;;1.80;0.57;;;;;;;37.34;39.54;101750.53;5065915;28;20036;-71
2022/06/18 11:21:43;;;;;;;2.05;0.30;;;;;;;36.70;39.88;101740.31;5067126;28;20099;-71
2022/06/18 11:24:12;;;;;;;2.63;0.70;;;;;;;35.95;40.53;101747.66;5067056;28;20024;-70
2022/06/18 11:26:52;;;;;;;1.55;0.38;;;;;;;36.05;40.79;101757.66;5082370;28;20074;-70
2022/06/18 11:29:37;;;;;;;1.60;0.50;;;;;;;36.24;39.10;101749.41;5066876;28;20103;-71
2022/06/18 11:32:16;;;;;;;0.85;0.45;;;;;;;36.90;38.47;101754.78;5066455;28;20027;-71
2022/06/18 11:34:48;;;;;;;1.00;0.35;;;;;;;36.96;38.15;101764.56;5063279;28;20476;-71
2022/06/18 11:37:25;;;;;;;1.77;0.40;;;;;;;36.54;37.54;101752.69;5065984;28;20407;-72
2022/06/18 11:39:56;;;;;;;1.48;0.43;;;;;;;36.59;38.14;101763.59;5067247;28;20024;-71
2022/06/18 11:42:31;;;;;;;3.03;0.73;;;;;;;36.55;37.72;101754.34;5066115;28;20016;-71
2022/06/18 11:45:16;;;;;;;0.90;0.25;;;;;;;37.14;36.77;101766.38;5067474;28;20091;-71
2022/06/18 11:47:49;;;;;;;0.22;0.17;;;;;;;37.59;37.67;101777.53;5066073;28;20028;-71
2022/06/18 11:50:27;;;;;;;1.15;0.30;;;;;;;37.19;36.30;101780.03;5065662;28;20020;-71
2022/06/18 11:53:14;;;;;;;2.05;0.60;;;;;;;36.58;37.09;101765.50;5066235;28;20025;-71
2022/06/18 11:55:46;;;;;;;0.20;0.17;;;;;;;36.81;37.45;101771.97;5066122;28;20063;-71
2022/06/18 11:58:30;;;;;;;1.52;0.30;;;;;;;36.97;37.65;101790.94;5067579;28;20017;-71